Aviation Digital Data Service (ADDS)

Output produced by METARs form (0900 UTC 26 January 2020)
found at http://www.aviationweather.gov/metar/data/
 
METAR text: RJCO 260800Z 25003KT 9999 FEW020 SCT035 M04/M11 Q1025
Conditions at: RJCO (SAPPORO (JGSDF/C, JP) observed 0800 UTC 26 January 2020
Temperature: -4.0°C (25°F)
Dewpoint: -11.0°C (12°F) [RH = 58%]
Pressure (altimeter): 30.27 inches Hg (1025.0 mb)
Winds: from the WSW (250 degrees) at 3 MPH (3 knots; 1.5 m/s)
Visibility: 6 or more miles (10+ km)
Ceiling: at least 12,000 feet AGL
Clouds: few clouds at 2000 feet AGL
scattered clouds at 3500 feet AGL
Weather: no significant weather observed at this time

METAR text: RJCO 260700Z 30007KT 9999 FEW035 M04/M12 Q1025
Conditions at: RJCO (SAPPORO (JGSDF/C, JP) observed 0700 UTC 26 January 2020
Temperature: -4.0°C (25°F)
Dewpoint: -12.0°C (10°F) [RH = 54%]
Pressure (altimeter): 30.27 inches Hg (1025.0 mb)
Winds: from the WNW (300 degrees) at 8 MPH (7 knots; 3.6 m/s)
Visibility: 6 or more miles (10+ km)
Ceiling: at least 12,000 feet AGL
Clouds: few clouds at 3500 feet AGL
Weather: no significant weather observed at this time

METAR text: RJCO 260600Z 32009KT 9999 FEW035 M03/M12 Q1025
Conditions at: RJCO (SAPPORO (JGSDF/C, JP) observed 0600 UTC 26 January 2020
Temperature: -3.0°C (27°F)
Dewpoint: -12.0°C (10°F) [RH = 50%]
Pressure (altimeter): 30.27 inches Hg (1025.0 mb)
Winds: from the NW (320 degrees) at 10 MPH (9 knots; 4.6 m/s)
Visibility: 6 or more miles (10+ km)
Ceiling: at least 12,000 feet AGL
Clouds: few clouds at 3500 feet AGL
Weather: no significant weather observed at this time

METAR text: RJCO 260511Z 32012KT 9999 FEW010 SCT045 M03/M12 Q1025 RMK 1ST010 4CU045 A3028
Conditions at: RJCO (SAPPORO (JGSDF/C, JP) observed 0511 UTC 26 January 2020
Temperature: -3.0°C (27°F)
Dewpoint: -12.0°C (10°F) [RH = 50%]
Pressure (altimeter): 30.27 inches Hg (1025.0 mb)
Winds: from the NW (320 degrees) at 14 MPH (12 knots; 6.2 m/s)
Visibility: 6 or more miles (10+ km)
Ceiling: at least 12,000 feet AGL
Clouds: few clouds at 1000 feet AGL
scattered clouds at 4500 feet AGL
Weather: no significant weather observed at this time

METAR text: RJCO 260500Z 32010KT 270V330 9999 FEW012 SCT025 BKN045 M03/M10 Q1025
Conditions at: RJCO (SAPPORO (JGSDF/C, JP) observed 0500 UTC 26 January 2020
Temperature: -3.0°C (27°F)
Dewpoint: -10.0°C (14°F) [RH = 58%]
Pressure (altimeter): 30.27 inches Hg (1025.0 mb)
Winds: from the NW (320 degrees) at 12 MPH (10 knots; 5.1 m/s)
Visibility: 6 or more miles (10+ km)
Ceiling: 4500 feet AGL
Clouds: few clouds at 1200 feet AGL
scattered clouds at 2500 feet AGL
broken clouds at 4500 feet AGL
Weather: no significant weather observed at this time

METAR text: RJCO 260400Z 31013KT 9999 -SHSN FEW010 BKN035 BKN050 M04/M10 Q1026
Conditions at: RJCO (SAPPORO (JGSDF/C, JP) observed 0400 UTC 26 January 2020
Temperature: -4.0°C (25°F)
Dewpoint: -10.0°C (14°F) [RH = 63%]
Pressure (altimeter): 30.30 inches Hg (1026.0 mb)
Winds: from the NW (310 degrees) at 15 MPH (13 knots; 6.7 m/s)
Visibility: 6 or more miles (10+ km)
Ceiling: 3500 feet AGL
Clouds: few clouds at 1000 feet AGL
broken clouds at 3500 feet AGL
broken clouds at 5000 feet AGL
Weather: -SHSN  (light snow showers)

METAR text: RJCO 260326Z 28011KT 260V320 9999 -SHSN FEW008 SCT015 BKN025 M04/M09 Q1026 RMK 1ST008 3CU015 7CU025 A3031
Conditions at: RJCO (SAPPORO (JGSDF/C, JP) observed 0326 UTC 26 January 2020
Temperature: -4.0°C (25°F)
Dewpoint: -9.0°C (16°F) [RH = 68%]
Pressure (altimeter): 30.30 inches Hg (1026.0 mb)
Winds: from the W (280 degrees) at 13 MPH (11 knots; 5.7 m/s)
Visibility: 6 or more miles (10+ km)
Ceiling: 2500 feet AGL
Clouds: few clouds at 800 feet AGL
scattered clouds at 1500 feet AGL
broken clouds at 2500 feet AGL
Weather: -SHSN  (light snow showers)

METAR text: RJCO 260300Z 33012KT 9999 FEW015 SCT030 BKN050 M03/M10 Q1027
Conditions at: RJCO (SAPPORO (JGSDF/C, JP) observed 0300 UTC 26 January 2020
Temperature: -3.0°C (27°F)
Dewpoint: -10.0°C (14°F) [RH = 58%]
Pressure (altimeter): 30.32 inches Hg (1027.0 mb)
Winds: from the NNW (330 degrees) at 14 MPH (12 knots; 6.2 m/s)
Visibility: 6 or more miles (10+ km)
Ceiling: 5000 feet AGL
Clouds: few clouds at 1500 feet AGL
scattered clouds at 3000 feet AGL
broken clouds at 5000 feet AGL
Weather: no significant weather observed at this time

METAR text: RJCO 260222Z 32011KT 9999 FEW015 SCT030 BKN050 M04/M11 Q1027 RMK 1CU015 3CU030 5SC050 A3034
Conditions at: RJCO (SAPPORO (JGSDF/C, JP) observed 0222 UTC 26 January 2020
Temperature: -4.0°C (25°F)
Dewpoint: -11.0°C (12°F) [RH = 58%]
Pressure (altimeter): 30.32 inches Hg (1027.0 mb)
Winds: from the NW (320 degrees) at 13 MPH (11 knots; 5.7 m/s)
Visibility: 6 or more miles (10+ km)
Ceiling: 5000 feet AGL
Clouds: few clouds at 1500 feet AGL
scattered clouds at 3000 feet AGL
broken clouds at 5000 feet AGL
Weather: no significant weather observed at this time

METAR text: RJCO 260205Z 30005KT 270V330 9999 -SHSN FEW008 SCT030 BKN045 M04/M10 Q1027 RMK 1ST008 3CU030 5CU045 A3034
Conditions at: RJCO (SAPPORO (JGSDF/C, JP) observed 0205 UTC 26 January 2020
Temperature: -4.0°C (25°F)
Dewpoint: -10.0°C (14°F) [RH = 63%]
Pressure (altimeter): 30.32 inches Hg (1027.0 mb)
Winds: from the WNW (300 degrees) at 6 MPH (5 knots; 2.6 m/s)
Visibility: 6 or more miles (10+ km)
Ceiling: 4500 feet AGL
Clouds: few clouds at 800 feet AGL
scattered clouds at 3000 feet AGL
broken clouds at 4500 feet AGL
Weather: -SHSN  (light snow showers)

METAR text: RJCO 260200Z VRB04KT 9999 FEW010 SCT035 BKN050 M05/M10 Q1027
Conditions at: RJCO (SAPPORO (JGSDF/C, JP) observed 0200 UTC 26 January 2020
Temperature: -5.0°C (23°F)
Dewpoint: -10.0°C (14°F) [RH = 68%]
Pressure (altimeter): 30.32 inches Hg (1027.0 mb)
Winds: variable direction winds at 5 MPH (4 knots; 2.1 m/s)
Visibility: 6 or more miles (10+ km)
Ceiling: 5000 feet AGL
Clouds: few clouds at 1000 feet AGL
scattered clouds at 3500 feet AGL
broken clouds at 5000 feet AGL
Weather: no significant weather observed at this time

METAR text: RJCO 260121Z 08003KT 060V120 9999 FEW010 SCT035 BKN050 M06/M09 Q1028 RMK 1ST010 3CU035 5SC050 A3036
Conditions at: RJCO (SAPPORO (JGSDF/C, JP) observed 0121 UTC 26 January 2020
Temperature: -6.0°C (21°F)
Dewpoint: -9.0°C (16°F) [RH = 79%]
Pressure (altimeter): 30.35 inches Hg (1028.0 mb)
Winds: from the E (80 degrees) at 3 MPH (3 knots; 1.5 m/s)
Visibility: 6 or more miles (10+ km)
Ceiling: 5000 feet AGL
Clouds: few clouds at 1000 feet AGL
scattered clouds at 3500 feet AGL
broken clouds at 5000 feet AGL
Weather: no significant weather observed at this time

METAR text: RJCO 260106Z 07003KT 030V160 9999 -SHSN FEW010 SCT035 BKN050 M06/M10 Q1028 RMK 1ST010 3CU035 6SC050 A3035
Conditions at: RJCO (SAPPORO (JGSDF/C, JP) observed 0106 UTC 26 January 2020
Temperature: -6.0°C (21°F)
Dewpoint: -10.0°C (14°F) [RH = 73%]
Pressure (altimeter): 30.35 inches Hg (1028.0 mb)
Winds: from the ENE (70 degrees) at 3 MPH (3 knots; 1.5 m/s)
Visibility: 6 or more miles (10+ km)
Ceiling: 5000 feet AGL
Clouds: few clouds at 1000 feet AGL
scattered clouds at 3500 feet AGL
broken clouds at 5000 feet AGL
Weather: -SHSN  (light snow showers)

METAR text: RJCO 260100Z VRB03KT 9999 FEW010 SCT035 BKN050 M06/M09 Q1028
Conditions at: RJCO (SAPPORO (JGSDF/C, JP) observed 0100 UTC 26 January 2020
Temperature: -6.0°C (21°F)
Dewpoint: -9.0°C (16°F) [RH = 79%]
Pressure (altimeter): 30.35 inches Hg (1028.0 mb)
Winds: variable direction winds at 3 MPH (3 knots; 1.5 m/s)
Visibility: 6 or more miles (10+ km)
Ceiling: 5000 feet AGL
Clouds: few clouds at 1000 feet AGL
scattered clouds at 3500 feet AGL
broken clouds at 5000 feet AGL
Weather: no significant weather observed at this time

METAR text: RJCO 260011Z 14003KT 9999 FEW010 SCT025 BKN045 M07/M09 Q1028 RMK 1ST010 3CU025 7CU045 A3036
Conditions at: RJCO (SAPPORO (JGSDF/C, JP) observed 0011 UTC 26 January 2020
Temperature: -7.0°C (19°F)
Dewpoint: -9.0°C (16°F) [RH = 86%]
Pressure (altimeter): 30.35 inches Hg (1028.0 mb)
Winds: from the SE (140 degrees) at 3 MPH (3 knots; 1.5 m/s)
Visibility: 6 or more miles (10+ km)
Ceiling: 4500 feet AGL
Clouds: few clouds at 1000 feet AGL
scattered clouds at 2500 feet AGL
broken clouds at 4500 feet AGL
Weather: no significant weather observed at this time

METAR text: RJCO 260000Z 14004KT 9999 -SHSN FEW008 SCT025 BKN040 M07/M09 Q1028
Conditions at: RJCO (SAPPORO (JGSDF/C, JP) observed 0000 UTC 26 January 2020
Temperature: -7.0°C (19°F)
Dewpoint: -9.0°C (16°F) [RH = 86%]
Pressure (altimeter): 30.35 inches Hg (1028.0 mb)
Winds: from the SE (140 degrees) at 5 MPH (4 knots; 2.1 m/s)
Visibility: 6 or more miles (10+ km)
Ceiling: 4000 feet AGL
Clouds: few clouds at 800 feet AGL
scattered clouds at 2500 feet AGL
broken clouds at 4000 feet AGL
Weather: -SHSN  (light snow showers)

METAR text: RJCO 252339Z 15005KT 9999 -SHSN FEW008 SCT025 BKN040 M07/M09 Q1028 RMK 1ST008 3CU025 6CU040 A3037
Conditions at: RJCO (SAPPORO (JGSDF/C, JP) observed 2339 UTC 25 January 2020
Temperature: -7.0°C (19°F)
Dewpoint: -9.0°C (16°F) [RH = 86%]
Pressure (altimeter): 30.35 inches Hg (1028.0 mb)
Winds: from the SSE (150 degrees) at 6 MPH (5 knots; 2.6 m/s)
Visibility: 6 or more miles (10+ km)
Ceiling: 4000 feet AGL
Clouds: few clouds at 800 feet AGL
scattered clouds at 2500 feet AGL
broken clouds at 4000 feet AGL
Weather: -SHSN  (light snow showers)

METAR text: RJCO 252300Z 16003KT 9999 FEW006 SCT020 BKN035 M08/M10 Q1028
Conditions at: RJCO (SAPPORO (JGSDF/C, JP) observed 2300 UTC 25 January 2020
Temperature: -8.0°C (18°F)
Dewpoint: -10.0°C (14°F) [RH = 85%]
Pressure (altimeter): 30.35 inches Hg (1028.0 mb)
Winds: from the SSE (160 degrees) at 3 MPH (3 knots; 1.5 m/s)
Visibility: 6 or more miles (10+ km)
Ceiling: 3500 feet AGL
Clouds: few clouds at 600 feet AGL
scattered clouds at 2000 feet AGL
broken clouds at 3500 feet AGL
Weather: no significant weather observed at this time

METAR text: RJCO 252200Z 14004KT 9999 FEW006 SCT020 BKN035 M09/M10 Q1028
Conditions at: RJCO (SAPPORO (JGSDF/C, JP) observed 2200 UTC 25 January 2020
Temperature: -9.0°C (16°F)
Dewpoint: -10.0°C (14°F) [RH = 92%]
Pressure (altimeter): 30.35 inches Hg (1028.0 mb)
Winds: from the SE (140 degrees) at 5 MPH (4 knots; 2.1 m/s)
Visibility: 6 or more miles (10+ km)
Ceiling: 3500 feet AGL
Clouds: few clouds at 600 feet AGL
scattered clouds at 2000 feet AGL
broken clouds at 3500 feet AGL
Weather: no significant weather observed at this time

METAR text: RJCO 252100Z 13002KT 9999 -SHSN FEW006 SCT020 BKN035 M09/M11 Q1028
Conditions at: RJCO (SAPPORO (JGSDF/C, JP) observed 2100 UTC 25 January 2020
Temperature: -9.0°C (16°F)
Dewpoint: -11.0°C (12°F) [RH = 85%]
Pressure (altimeter): 30.35 inches Hg (1028.0 mb)
Winds: from the SE (130 degrees) at 2 MPH (2 knots; 1.0 m/s)
Visibility: 6 or more miles (10+ km)
Ceiling: 3500 feet AGL
Clouds: few clouds at 600 feet AGL
scattered clouds at 2000 feet AGL
broken clouds at 3500 feet AGL
Weather: -SHSN  (light snow showers)

METAR text: RJCO 251100Z 30013KT 9000 -SHSN FEW005 BKN030 BKN040 M05/M10 Q1027
Conditions at: RJCO (SAPPORO (JGSDF/C, JP) observed 1100 UTC 25 January 2020
Temperature: -5.0°C (23°F)
Dewpoint: -10.0°C (14°F) [RH = 68%]
Pressure (altimeter): 30.32 inches Hg (1027.0 mb)
Winds: from the WNW (300 degrees) at 15 MPH (13 knots; 6.7 m/s)
Visibility: 6 miles ( 9 km)
Ceiling: 3000 feet AGL
Clouds: few clouds at 500 feet AGL
broken clouds at 3000 feet AGL
broken clouds at 4000 feet AGL
Weather: -SHSN  (light snow showers)

METAR text: RJCO 251026Z 29013G24KT 7000 -SHSN FEW005 SCT012 BKN030 M05/M10 Q1027 RMK 1ST005 3ST012 6CU030 A3034
Conditions at: RJCO (SAPPORO (JGSDF/C, JP) observed 1026 UTC 25 January 2020
Temperature: -5.0°C (23°F)
Dewpoint: -10.0°C (14°F) [RH = 68%]
Pressure (altimeter): 30.32 inches Hg (1027.0 mb)
Winds: from the WNW (290 degrees) at 15 MPH (13 knots; 6.7 m/s)
gusting to 28 MPH (24 knots; 12.3 m/s)
Visibility: 4 miles ( 7 km)
Ceiling: 3000 feet AGL
Clouds: few clouds at 500 feet AGL
scattered clouds at 1200 feet AGL
broken clouds at 3000 feet AGL
Weather: -SHSN  (light snow showers)

METAR text: RJCO 251007Z 29012G24KT 3500 -SHSN FEW005 SCT012 BKN025 M05/M10 Q1027 RMK 1ST005 3ST012 7CU025 A3034
Conditions at: RJCO (SAPPORO (JGSDF/C, JP) observed 1007 UTC 25 January 2020
Temperature: -5.0°C (23°F)
Dewpoint: -10.0°C (14°F) [RH = 68%]
Pressure (altimeter): 30.32 inches Hg (1027.0 mb)
Winds: from the WNW (290 degrees) at 14 MPH (12 knots; 6.2 m/s)
gusting to 28 MPH (24 knots; 12.3 m/s)
Visibility: 2.17 miles (3.49 km)
Ceiling: 2500 feet AGL
Clouds: few clouds at 500 feet AGL
scattered clouds at 1200 feet AGL
broken clouds at 2500 feet AGL
Weather: -SHSN  (light snow showers)

METAR text: RJCO 251000Z 29012KT 2000 -SHSN FEW005 SCT012 BKN025 M06/M09 Q1027
Conditions at: RJCO (SAPPORO (JGSDF/C, JP) observed 1000 UTC 25 January 2020
Temperature: -6.0°C (21°F)
Dewpoint: -9.0°C (16°F) [RH = 79%]
Pressure (altimeter): 30.32 inches Hg (1027.0 mb)
Winds: from the WNW (290 degrees) at 14 MPH (12 knots; 6.2 m/s)
Visibility: 1.24 miles (2.00 km)
Ceiling: 2500 feet AGL
Clouds: few clouds at 500 feet AGL
scattered clouds at 1200 feet AGL
broken clouds at 2500 feet AGL
Weather: -SHSN  (light snow showers)

METAR text: RJCO 250917Z 29015G26KT 3000 -SHSN FEW005 SCT012 BKN025 M05/M10 Q1027 RMK 1ST005 3ST012 7CU025 A3034
Conditions at: RJCO (SAPPORO (JGSDF/C, JP) observed 0917 UTC 25 January 2020
Temperature: -5.0°C (23°F)
Dewpoint: -10.0°C (14°F) [RH = 68%]
Pressure (altimeter): 30.32 inches Hg (1027.0 mb)
Winds: from the WNW (290 degrees) at 17 MPH (15 knots; 7.7 m/s)
gusting to 30 MPH (26 knots; 13.4 m/s)
Visibility: 1.86 miles (2.99 km)
Ceiling: 2500 feet AGL
Clouds: few clouds at 500 feet AGL
scattered clouds at 1200 feet AGL
broken clouds at 2500 feet AGL
Weather: -SHSN  (light snow showers)

METAR text: RJCO 250900Z 30017G27KT 7000 -SHSN FEW005 SCT015 BKN035 M05/M11 Q1027
Conditions at: RJCO (SAPPORO (JGSDF/C, JP) observed 0900 UTC 25 January 2020
Temperature: -5.0°C (23°F)
Dewpoint: -11.0°C (12°F) [RH = 63%]
Pressure (altimeter): 30.32 inches Hg (1027.0 mb)
Winds: from the WNW (300 degrees) at 20 MPH (17 knots; 8.7 m/s)
gusting to 31 MPH (27 knots; 13.9 m/s)
Visibility: 4 miles ( 7 km)
Ceiling: 3500 feet AGL
Clouds: few clouds at 500 feet AGL
scattered clouds at 1500 feet AGL
broken clouds at 3500 feet AGL
Weather: -SHSN  (light snow showers)

METAR text: RJCO 250823Z 29014G29KT 8000 -SHSN FEW005 SCT015 BKN035 M05/M11 Q1027 RMK 1ST005 3ST015 7CU035 A3034
Conditions at: RJCO (SAPPORO (JGSDF/C, JP) observed 0823 UTC 25 January 2020
Temperature: -5.0°C (23°F)
Dewpoint: -11.0°C (12°F) [RH = 63%]
Pressure (altimeter): 30.32 inches Hg (1027.0 mb)
Winds: from the WNW (290 degrees) at 16 MPH (14 knots; 7.2 m/s)
gusting to 33 MPH (29 knots; 14.9 m/s)
Visibility: 5 miles ( 8 km)
Ceiling: 3500 feet AGL
Clouds: few clouds at 500 feet AGL
scattered clouds at 1500 feet AGL
broken clouds at 3500 feet AGL
Weather: -SHSN  (light snow showers)

METAR text: RJCO 250800Z 30013KT 7000 -SHSN FEW005 SCT015 BKN040 M05/M11 Q1027
Conditions at: RJCO (SAPPORO (JGSDF/C, JP) observed 0800 UTC 25 January 2020
Temperature: -5.0°C (23°F)
Dewpoint: -11.0°C (12°F) [RH = 63%]
Pressure (altimeter): 30.32 inches Hg (1027.0 mb)
Winds: from the WNW (300 degrees) at 15 MPH (13 knots; 6.7 m/s)
Visibility: 4 miles ( 7 km)
Ceiling: 4000 feet AGL
Clouds: few clouds at 500 feet AGL
scattered clouds at 1500 feet AGL
broken clouds at 4000 feet AGL
Weather: -SHSN  (light snow showers)

METAR text: RJCO 250700Z 29016G28KT 9000 FEW012 BKN040 M04/M10 Q1026
Conditions at: RJCO (SAPPORO (JGSDF/C, JP) observed 0700 UTC 25 January 2020
Temperature: -4.0°C (25°F)
Dewpoint: -10.0°C (14°F) [RH = 63%]
Pressure (altimeter): 30.30 inches Hg (1026.0 mb)
Winds: from the WNW (290 degrees) at 18 MPH (16 knots; 8.2 m/s)
gusting to 32 MPH (28 knots; 14.4 m/s)
Visibility: 6 miles ( 9 km)
Ceiling: 4000 feet AGL
Clouds: few clouds at 1200 feet AGL
broken clouds at 4000 feet AGL
Weather: no significant weather observed at this time

METAR text: RJCO 250650Z 29017G28KT 6000 -SHSN FEW004 SCT015 BKN040 M05/M11 Q1026 REBLSN RMK 1ST004 3ST015 5CU040 A3032
Conditions at: RJCO (SAPPORO (JGSDF/C, JP) observed 0650 UTC 25 January 2020
Temperature: -5.0°C (23°F)
Dewpoint: -11.0°C (12°F) [RH = 63%]
Pressure (altimeter): 30.30 inches Hg (1026.0 mb)
Winds: from the WNW (290 degrees) at 20 MPH (17 knots; 8.7 m/s)
gusting to 32 MPH (28 knots; 14.4 m/s)
Visibility: 4 miles ( 6 km)
Ceiling: 4000 feet AGL
Clouds: few clouds at 400 feet AGL
scattered clouds at 1500 feet AGL
broken clouds at 4000 feet AGL
Weather: -SHSN  (light snow showers)

METAR text: RJCO 250639Z 30017G28KT 3000 -SHSN BLSN FEW004 SCT015 BKN040 M05/M09 Q1026 RMK 1ST004 4ST015 6CU040 A3032
Conditions at: RJCO (SAPPORO (JGSDF/C, JP) observed 0639 UTC 25 January 2020
Temperature: -5.0°C (23°F)
Dewpoint: -9.0°C (16°F) [RH = 73%]
Pressure (altimeter): 30.30 inches Hg (1026.0 mb)
Winds: from the WNW (300 degrees) at 20 MPH (17 knots; 8.7 m/s)
gusting to 32 MPH (28 knots; 14.4 m/s)
Visibility: 1.86 miles (2.99 km)
Ceiling: 4000 feet AGL
Clouds: few clouds at 400 feet AGL
scattered clouds at 1500 feet AGL
broken clouds at 4000 feet AGL
Weather: -SHSN BLSN  (light snow showers, blowing snow)

METAR text: RJCO 250601Z 31018G28KT 1800 -SHSN BLSN FEW004 BKN015 BKN040 M05/M09 Q1027 RMK 1ST004 6ST015 6CU040 A3032
Conditions at: RJCO (SAPPORO (JGSDF/C, JP) observed 0601 UTC 25 January 2020
Temperature: -5.0°C (23°F)
Dewpoint: -9.0°C (16°F) [RH = 73%]
Pressure (altimeter): 30.32 inches Hg (1027.0 mb)
Winds: from the NW (310 degrees) at 21 MPH (18 knots; 9.3 m/s)
gusting to 32 MPH (28 knots; 14.4 m/s)
Visibility: 1.12 miles (1.80 km)
Ceiling: 1500 feet AGL
Clouds: few clouds at 400 feet AGL
broken clouds at 1500 feet AGL
broken clouds at 4000 feet AGL
Weather: -SHSN BLSN  (light snow showers, blowing snow)

METAR text: RJCO 250600Z 31018KT 1800 -SHSN BLSN FEW004 BKN015 BKN040 M05/M08 Q1027
Conditions at: RJCO (SAPPORO (JGSDF/C, JP) observed 0600 UTC 25 January 2020
Temperature: -5.0°C (23°F)
Dewpoint: -8.0°C (18°F) [RH = 79%]
Pressure (altimeter): 30.32 inches Hg (1027.0 mb)
Winds: from the NW (310 degrees) at 21 MPH (18 knots; 9.3 m/s)
Visibility: 1.12 miles (1.80 km)
Ceiling: 1500 feet AGL
Clouds: few clouds at 400 feet AGL
broken clouds at 1500 feet AGL
broken clouds at 4000 feet AGL
Weather: -SHSN BLSN  (light snow showers, blowing snow)

METAR text: RJCO 250536Z 31016KT 3000 R32/1800U -SHSN BLSN FEW004 BKN015 BKN040 M04/M07 Q1026 RMK 1ST004 5ST015 6CU040 A3032
Conditions at: RJCO (SAPPORO (JGSDF/C, JP) observed 0536 UTC 25 January 2020
Temperature: -4.0°C (25°F)
Dewpoint: -7.0°C (19°F) [RH = 80%]
Pressure (altimeter): 30.30 inches Hg (1026.0 mb)
Winds: from the NW (310 degrees) at 18 MPH (16 knots; 8.2 m/s)
Visibility: 1.86 miles (2.99 km)
Ceiling: 1500 feet AGL
Clouds: few clouds at 400 feet AGL
broken clouds at 1500 feet AGL
broken clouds at 4000 feet AGL
Weather: BLSN -SHSN  (blowing snow, light snow showers)

METAR text: RJCO 250526Z 31016KT 0800 SHSN BLSN FEW004 BKN010 OVC015 M05/M08 Q1026 RMK 1ST004 7ST010 8ST015 A3032
Conditions at: RJCO (SAPPORO (JGSDF/C, JP) observed 0526 UTC 25 January 2020
Temperature: -5.0°C (23°F)
Dewpoint: -8.0°C (18°F) [RH = 79%]
Pressure (altimeter): 30.30 inches Hg (1026.0 mb)
Winds: from the NW (310 degrees) at 18 MPH (16 knots; 8.2 m/s)
Visibility: 0.50 miles (0.80 km)
Ceiling: 1000 feet AGL
Clouds: few clouds at 400 feet AGL
broken clouds at 1000 feet AGL
overcast cloud deck at 1500 feet AGL
Weather: SHSN BLSN  (snow showers, blowing snow)

METAR text: RJCO 250504Z 30018G28KT 2500 -SHSN BLSN FEW004 BKN015 BKN040 M04/M08 Q1026 RMK 1ST004 5ST015 6CU040 A3032
Conditions at: RJCO (SAPPORO (JGSDF/C, JP) observed 0504 UTC 25 January 2020
Temperature: -4.0°C (25°F)
Dewpoint: -8.0°C (18°F) [RH = 74%]
Pressure (altimeter): 30.30 inches Hg (1026.0 mb)
Winds: from the WNW (300 degrees) at 21 MPH (18 knots; 9.3 m/s)
gusting to 32 MPH (28 knots; 14.4 m/s)
Visibility: 1.55 miles (2.49 km)
Ceiling: 1500 feet AGL
Clouds: few clouds at 400 feet AGL
broken clouds at 1500 feet AGL
broken clouds at 4000 feet AGL
Weather: -SHSN BLSN  (light snow showers, blowing snow)

METAR text: RJCO 250500Z 30018KT 2500 -SHSN BLSN FEW004 SCT015 BKN040 M04/M09 Q1026
Conditions at: RJCO (SAPPORO (JGSDF/C, JP) observed 0500 UTC 25 January 2020
Temperature: -4.0°C (25°F)
Dewpoint: -9.0°C (16°F) [RH = 68%]
Pressure (altimeter): 30.30 inches Hg (1026.0 mb)
Winds: from the WNW (300 degrees) at 21 MPH (18 knots; 9.3 m/s)
Visibility: 1.55 miles (2.49 km)
Ceiling: 4000 feet AGL
Clouds: few clouds at 400 feet AGL
scattered clouds at 1500 feet AGL
broken clouds at 4000 feet AGL
Weather: -SHSN BLSN  (light snow showers, blowing snow)

METAR text: RJCO 250408Z 30014KT 3000 R32/1000U -SHSN FEW004 SCT007 BKN020 M04/M07 Q1026 REBLSN RMK 1ST004 3ST007 6CU020 A3032
Conditions at: RJCO (SAPPORO (JGSDF/C, JP) observed 0408 UTC 25 January 2020
Temperature: -4.0°C (25°F)
Dewpoint: -7.0°C (19°F) [RH = 80%]
Pressure (altimeter): 30.30 inches Hg (1026.0 mb)
Winds: from the WNW (300 degrees) at 16 MPH (14 knots; 7.2 m/s)
Visibility: 1.86 miles (2.99 km)
Ceiling: 2000 feet AGL
Clouds: few clouds at 400 feet AGL
scattered clouds at 700 feet AGL
broken clouds at 2000 feet AGL
Weather: -SHSN  (light snow showers)

METAR text: RJCO 250400Z 30015KT 0500 R32/0800D SHSN BLSN FEW004 BKN007 OVC010 M06/M07 Q1026
Conditions at: RJCO (SAPPORO (JGSDF/C, JP) observed 0400 UTC 25 January 2020
Temperature: -6.0°C (21°F)
Dewpoint: -7.0°C (19°F) [RH = 93%]
Pressure (altimeter): 30.30 inches Hg (1026.0 mb)
Winds: from the WNW (300 degrees) at 17 MPH (15 knots; 7.7 m/s)
Visibility: 0.31 miles (0.50 km)
Ceiling: 700 feet AGL
Clouds: few clouds at 400 feet AGL
broken clouds at 700 feet AGL
overcast cloud deck at 1000 feet AGL
Weather: BLSN SHSN  (blowing snow, snow showers)

METAR text: RJCO 250329Z 31019KT 1800 R32/1700U -SHSN BLSN FEW004 SCT007 OVC012 M05/M08 Q1027 RMK 1ST004 3ST007 8ST012 A3033
Conditions at: RJCO (SAPPORO (JGSDF/C, JP) observed 0329 UTC 25 January 2020
Temperature: -5.0°C (23°F)
Dewpoint: -8.0°C (18°F) [RH = 79%]
Pressure (altimeter): 30.32 inches Hg (1027.0 mb)
Winds: from the NW (310 degrees) at 22 MPH (19 knots; 9.8 m/s)
Visibility: 1.12 miles (1.80 km)
Ceiling: 1200 feet AGL
Clouds: few clouds at 400 feet AGL
scattered clouds at 700 feet AGL
overcast cloud deck at 1200 feet AGL
Weather: BLSN -SHSN  (blowing snow, light snow showers)

METAR text: RJCO 250319Z 30018KT 0400 R32/P1800 SHSN BLSN FEW004 SCT007 OVC012 M05/M08 Q1027 RMK 1ST004 3ST007 8ST012 A3033
Conditions at: RJCO (SAPPORO (JGSDF/C, JP) observed 0319 UTC 25 January 2020
Temperature: -5.0°C (23°F)
Dewpoint: -8.0°C (18°F) [RH = 79%]
Pressure (altimeter): 30.32 inches Hg (1027.0 mb)
Winds: from the WNW (300 degrees) at 21 MPH (18 knots; 9.3 m/s)
Visibility: 0.25 miles (0.40 km)
Ceiling: 1200 feet AGL
Clouds: few clouds at 400 feet AGL
scattered clouds at 700 feet AGL
overcast cloud deck at 1200 feet AGL
Weather: BLSN SHSN  (blowing snow, snow showers)

METAR text: RJCO 250300Z 29018G31KT 4000 -SHSN FEW008 SCT015 BKN040 M04/M09 Q1027
Conditions at: RJCO (SAPPORO (JGSDF/C, JP) observed 0300 UTC 25 January 2020
Temperature: -4.0°C (25°F)
Dewpoint: -9.0°C (16°F) [RH = 68%]
Pressure (altimeter): 30.32 inches Hg (1027.0 mb)
Winds: from the WNW (290 degrees) at 21 MPH (18 knots; 9.3 m/s)
gusting to 36 MPH (31 knots; 15.9 m/s)
Visibility: 2.49 miles (4.01 km)
Ceiling: 4000 feet AGL
Clouds: few clouds at 800 feet AGL
scattered clouds at 1500 feet AGL
broken clouds at 4000 feet AGL
Weather: -SHSN  (light snow showers)

METAR text: RJCO 250249Z 30018G31KT 4000 -SHSN FEW008 SCT015 BKN040 M04/M08 Q1027 RMK 1ST008 3ST015 6CU040 A3034
Conditions at: RJCO (SAPPORO (JGSDF/C, JP) observed 0249 UTC 25 January 2020
Temperature: -4.0°C (25°F)
Dewpoint: -8.0°C (18°F) [RH = 74%]
Pressure (altimeter): 30.32 inches Hg (1027.0 mb)
Winds: from the WNW (300 degrees) at 21 MPH (18 knots; 9.3 m/s)
gusting to 36 MPH (31 knots; 15.9 m/s)
Visibility: 2.49 miles (4.01 km)
Ceiling: 4000 feet AGL
Clouds: few clouds at 800 feet AGL
scattered clouds at 1500 feet AGL
broken clouds at 4000 feet AGL
Weather: -SHSN  (light snow showers)

METAR text: RJCO 250221Z 30019KT 6000 -SHSN FEW008 SCT015 BKN040 M04/M11 Q1027 RMK 1ST008 4ST015 6CU040 A3034
Conditions at: RJCO (SAPPORO (JGSDF/C, JP) observed 0221 UTC 25 January 2020
Temperature: -4.0°C (25°F)
Dewpoint: -11.0°C (12°F) [RH = 58%]
Pressure (altimeter): 30.32 inches Hg (1027.0 mb)
Winds: from the WNW (300 degrees) at 22 MPH (19 knots; 9.8 m/s)
Visibility: 4 miles ( 6 km)
Ceiling: 4000 feet AGL
Clouds: few clouds at 800 feet AGL
scattered clouds at 1500 feet AGL
broken clouds at 4000 feet AGL
Weather: -SHSN  (light snow showers)

METAR text: RJCO 250200Z 30014KT 9999 FEW008 SCT020 BKN050 M04/M12 Q1028
Conditions at: RJCO (SAPPORO (JGSDF/C, JP) observed 0200 UTC 25 January 2020
Temperature: -4.0°C (25°F)
Dewpoint: -12.0°C (10°F) [RH = 54%]
Pressure (altimeter): 30.35 inches Hg (1028.0 mb)
Winds: from the WNW (300 degrees) at 16 MPH (14 knots; 7.2 m/s)
Visibility: 6 or more miles (10+ km)
Ceiling: 5000 feet AGL
Clouds: few clouds at 800 feet AGL
scattered clouds at 2000 feet AGL
broken clouds at 5000 feet AGL
Weather: no significant weather observed at this time

METAR text: RJCO 250133Z 31011KT 8000 FEW005 SCT015 BKN050 M05/M09 Q1028 RESN RMK 1ST005 3ST015 5CU050 A3037
Conditions at: RJCO (SAPPORO (JGSDF/C, JP) observed 0133 UTC 25 January 2020
Temperature: -5.0°C (23°F)
Dewpoint: -9.0°C (16°F) [RH = 73%]
Pressure (altimeter): 30.35 inches Hg (1028.0 mb)
Winds: from the NW (310 degrees) at 13 MPH (11 knots; 5.7 m/s)
Visibility: 5 miles ( 8 km)
Ceiling: 5000 feet AGL
Clouds: few clouds at 500 feet AGL
scattered clouds at 1500 feet AGL
broken clouds at 5000 feet AGL
Weather: no significant weather observed at this time

METAR text: RJCO 250112Z 32010KT 1800 R32/1500U -SHSN FEW005 SCT008 BKN015 M06/M08 Q1028 RMK 1ST005 4ST008 6ST015 A3038
Conditions at: RJCO (SAPPORO (JGSDF/C, JP) observed 0112 UTC 25 January 2020
Temperature: -6.0°C (21°F)
Dewpoint: -8.0°C (18°F) [RH = 86%]
Pressure (altimeter): 30.35 inches Hg (1028.0 mb)
Winds: from the NW (320 degrees) at 12 MPH (10 knots; 5.1 m/s)
Visibility: 1.12 miles (1.80 km)
Ceiling: 1500 feet AGL
Clouds: few clouds at 500 feet AGL
scattered clouds at 800 feet AGL
broken clouds at 1500 feet AGL
Weather: -SHSN  (light snow showers)

METAR text: RJCO 250100Z 29010KT 0600 R32/0800D SHSN FEW003 OVC008 M07/M08 Q1028
Conditions at: RJCO (SAPPORO (JGSDF/C, JP) observed 0100 UTC 25 January 2020
Temperature: -7.0°C (19°F)
Dewpoint: -8.0°C (18°F) [RH = 93%]
Pressure (altimeter): 30.35 inches Hg (1028.0 mb)
Winds: from the WNW (290 degrees) at 12 MPH (10 knots; 5.1 m/s)
Visibility: 0.37 miles (0.60 km)
Ceiling: 800 feet AGL
Clouds: few clouds at 300 feet AGL
overcast cloud deck at 800 feet AGL
Weather: SHSN  (snow showers)

METAR text: RJCO 250000Z 26008KT 1800 -SHSN FEW005 SCT008 BKN015 M07/M09 Q1028
Conditions at: RJCO (SAPPORO (JGSDF/C, JP) observed 0000 UTC 25 January 2020
Temperature: -7.0°C (19°F)
Dewpoint: -9.0°C (16°F) [RH = 86%]
Pressure (altimeter): 30.35 inches Hg (1028.0 mb)
Winds: from the W (260 degrees) at 9 MPH (8 knots; 4.1 m/s)
Visibility: 1.12 miles (1.80 km)
Ceiling: 1500 feet AGL
Clouds: few clouds at 500 feet AGL
scattered clouds at 800 feet AGL
broken clouds at 1500 feet AGL
Weather: -SHSN  (light snow showers)

METAR text: RJCO 242300Z 30015KT 3000 -SHSN FEW005 BKN015 BKN025 M06/M09 Q1028
Conditions at: RJCO (SAPPORO (JGSDF/C, JP) observed 2300 UTC 24 January 2020
Temperature: -6.0°C (21°F)
Dewpoint: -9.0°C (16°F) [RH = 79%]
Pressure (altimeter): 30.35 inches Hg (1028.0 mb)
Winds: from the WNW (300 degrees) at 17 MPH (15 knots; 7.7 m/s)
Visibility: 1.86 miles (2.99 km)
Ceiling: 1500 feet AGL
Clouds: few clouds at 500 feet AGL
broken clouds at 1500 feet AGL
broken clouds at 2500 feet AGL
Weather: -SHSN  (light snow showers)

METAR text: RJCO 242200Z 29010KT 2000 -SHSN FEW005 BKN015 BKN020 M07/M10 Q1028
Conditions at: RJCO (SAPPORO (JGSDF/C, JP) observed 2200 UTC 24 January 2020
Temperature: -7.0°C (19°F)
Dewpoint: -10.0°C (14°F) [RH = 79%]
Pressure (altimeter): 30.35 inches Hg (1028.0 mb)
Winds: from the WNW (290 degrees) at 12 MPH (10 knots; 5.1 m/s)
Visibility: 1.24 miles (2.00 km)
Ceiling: 1500 feet AGL
Clouds: few clouds at 500 feet AGL
broken clouds at 1500 feet AGL
broken clouds at 2000 feet AGL
Weather: -SHSN  (light snow showers)